Time;durP1;ratioP1;P1;durP2;ratioP2;P2;SDS_P1;SDS_P2;PMS_P1;PMS_P2;Temp;Humidity;BMP_temperature;BMP_pressure;BME280_temperature;BME280_humidity;BME280_pressure;Samples;Min_cycle;Max_cycle;Signal;HPM_P1;HPM_P2
2022/12/21 00:00:16;;;;;;;24.02;10.73;;;7.60;99.90;;;;;;7407685;19;19939;-65
2022/12/21 00:02:45;;;;;;;24.58;10.52;;;7.50;99.90;;;;;;7407666;19;19923;-64
2022/12/21 00:05:14;;;;;;;21.40;10.60;;;7.40;99.90;;;;;;7407030;19;19938;-66
2022/12/21 00:07:43;;;;;;;25.83;10.65;;;7.50;99.90;;;;;;7406498;19;20034;-64
2022/12/21 00:10:13;;;;;;;24.00;10.73;;;7.50;99.90;;;;;;7407792;19;19930;-64
2022/12/21 00:12:42;;;;;;;22.92;9.93;;;7.40;99.90;;;;;;7404476;19;19918;-64
2022/12/21 00:15:14;;;;;;;21.38;9.98;;;7.40;99.90;;;;;;7405876;19;20281;-66
2022/12/21 00:17:43;;;;;;;22.65;10.07;;;7.40;99.90;;;;;;7405284;19;19926;-64
2022/12/21 00:20:13;;;;;;;24.75;10.73;;;7.30;99.90;;;;;;7404188;19;20014;-65
2022/12/21 00:22:42;;;;;;;26.70;10.85;;;7.40;99.90;;;;;;7405760;19;19958;-65
2022/12/21 00:25:12;;;;;;;27.33;10.00;;;7.30;99.90;;;;;;7405898;19;19941;-64
2022/12/21 00:27:41;;;;;;;27.30;10.23;;;7.30;99.90;;;;;;7407831;19;19926;-65
2022/12/21 00:30:14;;;;;;;21.73;9.50;;;7.30;99.90;;;;;;7406993;19;19918;-65
2022/12/21 00:32:43;;;;;;;29.60;10.82;;;7.30;99.90;;;;;;7402704;19;19918;-64
2022/12/21 00:35:12;;;;;;;22.50;10.30;;;7.50;99.90;;;;;;7405057;19;19922;-64
2022/12/21 00:37:41;;;;;;;23.00;10.45;;;7.30;99.90;;;;;;7406258;19;20274;-64
2022/12/21 00:40:11;;;;;;;26.15;10.68;;;7.20;99.90;;;;;;7404647;19;19914;-64
2022/12/21 00:42:40;;;;;;;26.95;10.93;;;7.20;99.90;;;;;;7407037;19;19928;-65
2022/12/21 00:45:14;;;;;;;27.45;10.43;;;7.20;99.90;;;;;;7407007;19;19982;-64
2022/12/21 00:47:43;;;;;;;27.23;10.43;;;7.10;99.90;;;;;;7405018;19;19914;-64
2022/12/21 00:50:12;;;;;;;29.10;11.38;;;7.10;99.90;;;;;;7409201;19;19923;-64
2022/12/21 00:52:44;;;;;;;26.88;10.98;;;7.10;99.90;;;;;;7402277;19;19923;-65
2022/12/21 00:55:13;;;;;;;28.23;10.52;;;7.20;99.90;;;;;;7407327;19;19939;-64
2022/12/21 00:57:42;;;;;;;23.85;9.57;;;7.10;99.90;;;;;;7404062;19;19914;-64
2022/12/21 01:00:15;;;;;;;24.60;9.82;;;7.20;99.90;;;;;;7394880;19;20013;-64
2022/12/21 01:02:44;;;;;;;22.80;9.75;;;6.90;99.90;;;;;;7403353;19;20382;-65
2022/12/21 01:05:13;;;;;;;28.70;9.45;;;6.90;99.90;;;;;;7403898;19;19932;-64
2022/12/21 01:07:42;;;;;;;27.05;10.23;;;7.00;99.90;;;;;;7403460;19;19943;-65
2022/12/21 01:10:26;;;;;;;30.20;10.77;;;6.90;99.90;;;;;;7408570;19;20256;-64
2022/12/21 01:12:57;;;;;;;26.90;11.30;;;7.00;99.90;;;;;;7402288;19;19922;-65
2022/12/21 01:15:28;;;;;;;35.00;10.18;;;6.90;99.90;;;;;;7403602;19;20264;-64
2022/12/21 01:17:57;;;;;;;35.03;11.65;;;6.90;99.90;;;;;;7404294;19;19929;-65
2022/12/21 01:20:26;;;;;;;30.30;11.43;;;6.80;99.90;;;;;;7403895;19;19991;-64
2022/12/21 01:22:55;;;;;;;40.15;11.98;;;6.70;99.90;;;;;;7404070;19;19943;-66
2022/12/21 01:25:25;;;;;;;30.75;12.10;;;6.60;99.90;;;;;;7404007;19;19910;-65
2022/12/21 01:27:53;;;;;;;33.13;11.15;;;6.70;99.90;;;;;;7405116;19;19978;-64
2022/12/21 01:30:22;;;;;;;46.63;11.77;;;6.70;99.90;;;;;;7403640;19;19921;-64
2022/12/21 01:32:55;;;;;;;51.22;12.82;;;6.80;99.90;;;;;;7401623;19;19918;-64
2022/12/21 01:35:24;;;;;;;73.07;12.73;;;6.60;99.90;;;;;;7402971;19;20376;-65
2022/12/21 01:37:53;;;;;;;126.80;15.02;;;6.70;99.90;;;;;;7405046;19;19930;-65
2022/12/21 01:40:22;;;;;;;62.13;10.93;;;6.60;99.90;;;;;;7404890;19;19966;-64
2022/12/21 01:42:52;;;;;;;67.70;11.13;;;6.60;99.90;;;;;;7402867;19;19919;-64
2022/12/21 01:45:26;;;;;;;134.32;14.90;;;6.40;99.90;;;;;;7406815;19;19919;-64
2022/12/21 01:48:01;;;;;;;81.40;11.88;;;6.50;99.90;;;;;;7406925;19;19922;-65
2022/12/21 01:50:36;;;;;;;85.53;12.52;;;6.50;99.90;;;;;;7404411;19;19934;-64
2022/12/21 01:53:09;;;;;;;129.27;16.10;;;6.50;99.90;;;;;;7403719;19;19925;-64
2022/12/21 01:55:40;;;;;;;100.85;11.07;;;6.50;99.90;;;;;;7404916;19;19925;-64
2022/12/21 01:58:11;;;;;;;79.45;11.48;;;6.60;99.90;;;;;;7405251;19;19914;-64
2022/12/21 02:00:42;;;;;;;116.10;12.55;;;6.30;99.90;;;;;;7406305;19;19929;-64
2022/12/21 02:03:19;;;;;;;156.30;14.35;;;6.40;99.90;;;;;;7406196;19;19951;-64
2022/12/21 02:05:51;;;;;;;;;;;6.50;99.90;;;;;;7404680;19;19911;-64
2022/12/21 02:08:21;;;;;;;75.68;10.40;;;6.30;99.90;;;;;;7400908;19;20264;-64
2022/12/21 02:10:51;;;;;;;88.65;11.70;;;6.40;99.90;;;;;;7402079;19;20261;-64
2022/12/21 02:13:20;;;;;;;86.30;12.77;;;6.30;99.90;;;;;;7400839;19;19946;-64
2022/12/21 02:16:30;;;;;;;78.10;10.30;;;6.30;99.90;;;;;;7402873;19;20030;-63
2022/12/21 02:19:29;;;;;;;73.43;12.13;;;6.40;99.90;;;;;;7404320;19;20018;-64
2022/12/21 02:22:05;;;;;;;53.60;10.52;;;6.30;99.90;;;;;;7400282;19;20037;-64
2022/12/21 02:25:16;;;;;;;77.15;11.68;;;6.30;99.90;;;;;;7406037;19;19922;-64
2022/12/21 02:28:13;;;;;;;39.45;8.02;;;6.40;99.90;;;;;;7400683;19;20347;-64
2022/12/21 02:31:08;;;;;;;26.05;7.28;;;6.20;99.90;;;;;;7401774;19;19940;-64
2022/12/21 02:33:52;;;;;;;45.30;9.05;;;6.30;99.90;;;;;;7399393;19;19939;-64
2022/12/21 02:36:31;;;;;;;75.07;9.98;;;6.20;99.90;;;;;;7401615;19;19914;-64
2022/12/21 02:39:11;;;;;;;57.70;11.68;;;6.20;99.90;;;;;;7401212;19;19926;-64
2022/12/21 02:41:55;;;;;;;67.65;11.75;;;6.20;99.90;;;;;;7400930;19;19991;-64
2022/12/21 02:44:34;;;;;;;60.55;9.95;;;6.30;99.90;;;;;;7401054;19;19954;-64
2022/12/21 02:47:12;;;;;;;96.07;10.23;;;6.10;99.90;;;;;;7401199;19;19930;-64
2022/12/21 02:49:48;;;;;;;72.78;11.57;;;6.20;99.90;;;;;;7400912;19;19942;-64
2022/12/21 02:52:23;;;;;;;86.70;10.82;;;6.10;99.90;;;;;;7400449;19;19982;-64
2022/12/21 02:54:59;;;;;;;50.83;10.82;;;6.10;99.90;;;;;;7402815;19;19926;-65
2022/12/21 02:57:33;;;;;;;61.65;8.93;;;6.20;99.90;;;;;;7401134;19;19983;-64
2022/12/21 03:00:09;;;;;;;44.33;9.45;;;6.10;99.90;;;;;;7400493;19;19922;-64
2022/12/21 03:06:15;;;;;;;106.75;12.77;;;6.10;99.90;;;;;;7400050;19;19938;-64
2022/12/21 03:08:56;;;;;;;82.20;10.45;;;6.10;99.90;;;;;;7399888;19;20333;-64
2022/12/21 03:11:30;;;;;;;51.42;8.15;;;6.20;99.90;;;;;;7400449;19;19919;-66
2022/12/21 03:14:06;;;;;;;100.43;11.13;;;6.00;99.90;;;;;;7400303;19;19915;-64
2022/12/21 03:16:46;;;;;;;79.18;9.50;;;6.00;99.90;;;;;;7400157;19;19957;-64
2022/12/21 03:19:23;;;;;;;57.78;7.70;;;6.00;99.90;;;;;;7402146;19;19943;-64
2022/12/21 03:22:00;;;;;;;118.88;12.88;;;6.00;99.90;;;;;;7407845;19;19914;-64
2022/12/21 03:24:36;;;;;;;71.88;10.02;;;6.10;99.90;;;;;;7406594;19;19919;-64
2022/12/21 03:27:13;;;;;;;41.22;8.60;;;5.90;99.90;;;;;;7408839;19;19966;-65
2022/12/21 03:29:48;;;;;;;91.97;10.52;;;6.00;99.90;;;;;;7407016;19;19925;-65
2022/12/21 03:32:23;;;;;;;60.90;9.02;;;6.00;99.90;;;;;;7405091;19;20404;-64
2022/12/21 03:34:58;;;;;;;44.30;8.88;;;5.90;99.90;;;;;;7406697;19;19919;-65
2022/12/21 03:37:31;;;;;;;28.13;7.45;;;6.00;99.90;;;;;;7406692;19;20348;-64
2022/12/21 03:40:06;;;;;;;79.70;9.32;;;6.10;99.90;;;;;;7406740;19;19915;-65
2022/12/21 03:42:41;;;;;;;28.65;7.45;;;6.10;99.90;;;;;;7406089;19;19914;-64
2022/12/21 03:45:13;;;;;;;61.47;8.68;;;6.10;99.90;;;;;;7410347;19;19942;-64
2022/12/21 03:47:48;;;;;;;70.72;8.65;;;6.00;99.90;;;;;;7405975;19;19930;-65
2022/12/21 03:50:24;;;;;;;66.25;8.13;;;6.00;99.90;;;;;;7406555;19;19978;-65
2022/12/21 03:53:00;;;;;;;63.10;9.43;;;5.90;99.90;;;;;;7405016;19;19929;-64
2022/12/21 03:55:33;;;;;;;90.15;11.57;;;6.00;99.90;;;;;;7410019;19;19918;-64
2022/12/21 03:58:03;;;;;;;50.88;7.88;;;6.00;99.90;;;;;;7406551;19;19974;-65
2022/12/21 04:00:38;;;;;;;53.08;7.40;;;6.00;99.90;;;;;;7407807;19;20248;-65
2022/12/21 04:03:15;;;;;;;100.05;9.93;;;5.90;99.90;;;;;;7406346;19;19922;-64
2022/12/21 04:05:52;;;;;;;67.55;8.38;;;6.00;99.90;;;;;;7405717;19;19978;-64
2022/12/21 04:08:22;;;;;;;48.33;8.10;;;6.00;99.90;;;;;;7405545;19;20014;-64
2022/12/21 04:10:51;;;;;;;42.03;7.50;;;6.10;99.90;;;;;;7405819;19;19942;-64
2022/12/21 04:13:17;;;;;;;71.25;8.55;;;6.00;99.90;;;;;;7397281;19;20014;-64
2022/12/21 04:21:12;;;;;;;80.40;9.82;;;5.90;99.90;;;;;;7405223;19;19915;-64
2022/12/21 04:29:05;;;;;;;49.45;6.43;;;5.90;99.90;;;;;;7404876;19;19922;-64
2022/12/21 04:31:34;;;;;;;46.28;7.43;;;5.80;99.90;;;;;;7403647;19;19947;-64
2022/12/21 04:34:03;;;;;;;36.13;6.80;;;5.80;99.90;;;;;;7402519;19;19918;-64
2022/12/21 04:39:17;;;;;;;70.32;8.27;;;5.80;99.90;;;;;;7402788;19;19929;-64
2022/12/21 04:41:46;;;;;;;49.65;7.38;;;6.90;99.90;;;;;;7406177;19;19919;-64
2022/12/21 04:44:15;;;;;;;43.08;7.32;;;5.80;99.90;;;;;;7404241;19;19919;-64
2022/12/21 04:46:44;;;;;;;34.80;6.47;;;5.80;99.90;;;;;;7408936;19;20321;-64
2022/12/21 04:49:13;;;;;;;37.53;7.05;;;5.70;99.90;;;;;;7403835;19;19918;-64
2022/12/21 04:51:45;;;;;;;54.80;7.15;;;5.80;99.90;;;;;;7404900;19;20296;-64
2022/12/21 04:54:14;;;;;;;40.70;6.70;;;5.80;99.90;;;;;;7403060;19;20436;-65
2022/12/21 04:56:43;;;;;;;53.33;7.68;;;5.70;99.90;;;;;;7403852;19;19927;-64
2022/12/21 04:59:12;;;;;;;40.38;6.82;;;5.70;99.90;;;;;;7404190;19;19910;-64
2022/12/21 05:01:41;;;;;;;77.22;9.05;;;5.80;99.90;;;;;;7403742;19;19926;-64
2022/12/21 05:04:10;;;;;;;101.15;9.25;;;5.60;99.90;;;;;;7404400;19;19919;-63
2022/12/21 05:06:39;;;;;;;73.85;7.97;;;5.60;99.90;;;;;;7403355;19;19918;-64
2022/12/21 05:09:14;;;;;;;72.13;8.23;;;5.70;99.90;;;;;;7403654;19;19915;-62
2022/12/21 05:11:43;;;;;;;72.97;8.10;;;5.40;99.90;;;;;;7404166;19;20308;-65
2022/12/21 05:14:12;;;;;;;56.30;7.30;;;5.50;99.90;;;;;;7402395;19;20244;-64
2022/12/21 05:16:41;;;;;;;65.93;7.53;;;5.50;99.90;;;;;;7403728;19;19986;-64
2022/12/21 05:19:11;;;;;;;63.20;7.60;;;5.50;99.90;;;;;;7402417;19;20479;-64
2022/12/21 05:21:41;;;;;;;43.85;6.93;;;5.40;99.90;;;;;;7406915;19;19919;-64
2022/12/21 05:24:13;;;;;;;36.88;7.22;;;5.60;99.90;;;;;;7403307;19;19971;-64
2022/12/21 05:26:42;;;;;;;;;;;5.60;99.90;;;;;;7406383;19;19919;-64
2022/12/21 05:29:12;;;;;;;41.97;7.05;;;5.60;99.90;;;;;;7403794;19;19922;-63
2022/12/21 05:31:41;;;;;;;85.28;8.32;;;5.70;99.90;;;;;;7406163;19;19947;-65
2022/12/21 05:34:10;;;;;;;82.28;9.18;;;5.50;99.90;;;;;;7401486;19;19923;-65
2022/12/21 05:36:39;;;;;;;80.88;7.93;;;5.50;99.90;;;;;;7405057;19;19926;-64
2022/12/21 05:39:08;;;;;;;110.30;9.13;;;5.50;99.90;;;;;;7405146;19;19970;-64
2022/12/21 05:41:40;;;;;;;68.93;8.48;;;5.90;99.90;;;;;;7402414;19;19958;-64
2022/12/21 05:44:10;;;;;;;60.80;7.10;;;5.50;99.90;;;;;;7402962;19;20009;-64
2022/12/21 05:46:41;;;;;;;41.05;7.13;;;5.60;99.90;;;;;;7404769;19;19947;-64
2022/12/21 05:49:11;;;;;;;54.30;6.75;;;5.60;99.90;;;;;;7405285;19;19933;-64
2022/12/21 05:51:41;;;;;;;75.07;8.07;;;5.60;99.90;;;;;;7405205;19;19927;-65
2022/12/21 05:54:10;;;;;;;54.35;6.93;;;5.50;99.90;;;;;;7401163;19;19915;-64
2022/12/21 05:56:41;;;;;;;48.53;6.97;;;5.40;99.90;;;;;;7404133;19;20034;-64
2022/12/21 05:59:10;;;;;;;55.42;6.55;;;5.60;99.90;;;;;;7406085;19;19943;-64
2022/12/21 06:01:40;;;;;;;75.68;7.97;;;5.50;99.90;;;;;;7402440;19;19990;-64
2022/12/21 06:04:09;;;;;;;51.65;8.90;;;5.60;99.90;;;;;;7403184;19;20269;-64
2022/12/21 06:06:39;;;;;;;23.75;5.95;;;5.50;99.90;;;;;;7402632;19;19925;-64
2022/12/21 06:09:08;;;;;;;60.97;7.47;;;5.40;99.90;;;;;;7405102;19;19922;-64
2022/12/21 06:11:46;;;;;;;50.92;7.13;;;5.50;99.90;;;;;;7402081;19;19915;-64
2022/12/21 06:14:15;;;;;;;90.53;8.20;;;5.40;99.90;;;;;;7401131;19;19911;-64
2022/12/21 06:16:54;;;;;;;104.05;9.05;;;5.40;99.90;;;;;;7404443;19;19918;-64
2022/12/21 06:19:23;;;;;;;64.60;8.98;;;6.00;99.90;;;;;;7405761;19;19931;-64
2022/12/21 06:21:54;;;;;;;61.30;7.60;;;5.50;99.90;;;;;;7401419;19;19993;-63
2022/12/21 06:24:23;;;;;;;36.58;7.78;;;5.40;99.90;;;;;;7401790;19;19914;-64
2022/12/21 06:26:55;;;;;;;78.03;8.30;;;5.50;99.90;;;;;;7402779;19;19918;-64
2022/12/21 06:29:24;;;;;;;47.50;7.53;;;5.80;99.90;;;;;;7404918;19;20352;-64
2022/12/21 06:31:53;;;;;;;30.40;7.28;;;5.50;99.90;;;;;;7401465;19;19923;-64
2022/12/21 06:34:22;;;;;;;41.70;7.13;;;5.40;99.90;;;;;;7399612;19;20361;-64
2022/12/21 06:36:51;;;;;;;63.47;10.45;;;5.60;99.90;;;;;;7401203;19;20078;-64
2022/12/21 06:39:20;;;;;;;56.42;9.00;;;5.40;99.90;;;;;;7402606;19;19927;-63
2022/12/21 06:41:59;;;;;;;45.17;7.07;;;5.50;99.90;;;;;;7403014;19;19930;-65
2022/12/21 06:44:29;;;;;;;80.85;9.57;;;5.70;99.90;;;;;;7404243;19;19918;-64
2022/12/21 06:46:58;;;;;;;79.18;10.00;;;5.60;99.90;;;;;;7401302;19;19947;-64
2022/12/21 06:49:27;;;;;;;55.13;8.85;;;5.60;99.90;;;;;;7396486;19;20070;-64
2022/12/21 06:51:56;;;;;;;76.60;11.68;;;5.70;99.90;;;;;;7404714;19;19978;-66
2022/12/21 06:54:25;;;;;;;97.20;11.10;;;5.90;99.90;;;;;;7403605;19;19919;-64
2022/12/21 06:56:54;;;;;;;80.05;9.65;;;5.70;99.90;;;;;;7410165;19;19919;-64
2022/12/21 06:59:26;;;;;;;82.82;9.63;;;5.60;99.90;;;;;;7408253;19;20244;-64
2022/12/21 07:01:55;;;;;;;66.07;10.07;;;5.60;99.90;;;;;;7406909;19;19953;-64
2022/12/21 07:04:32;;;;;;;96.68;10.00;;;5.60;99.90;;;;;;7408917;19;19943;-64
2022/12/21 07:07:04;;;;;;;47.83;8.48;;;5.90;99.90;;;;;;7405135;19;20297;-65
2022/12/21 07:09:33;;;;;;;57.42;9.77;;;5.50;99.90;;;;;;7407497;19;20333;-65
2022/12/21 07:12:02;;;;;;;44.13;9.30;;;5.50;99.90;;;;;;7409126;19;20389;-64
2022/12/21 07:14:34;;;;;;;36.03;9.48;;;5.60;99.90;;;;;;7407490;19;20447;-64
2022/12/21 07:17:03;;;;;;;50.50;10.75;;;6.40;99.90;;;;;;7411540;19;19948;-64
2022/12/21 07:19:32;;;;;;;59.88;10.30;;;5.70;99.90;;;;;;7406148;19;19926;-64
2022/12/21 07:22:06;;;;;;;52.25;9.70;;;5.80;99.90;;;;;;7405121;19;19918;-65
2022/12/21 07:24:35;;;;;;;53.70;9.57;;;5.90;99.90;;;;;;7407028;19;20278;-64
2022/12/21 07:27:04;;;;;;;52.35;11.80;;;5.70;99.90;;;;;;7409318;19;19926;-64
2022/12/21 07:29:35;;;;;;;49.38;11.18;;;5.70;99.90;;;;;;7409392;19;20324;-64
2022/12/21 07:32:05;;;;;;;49.42;11.43;;;5.70;99.90;;;;;;7408279;19;19922;-64
2022/12/21 07:34:41;;;;;;;71.53;12.82;;;5.70;99.90;;;;;;7403468;19;19978;-64
2022/12/21 07:37:09;;;;;;;62.78;11.20;;;5.70;99.90;;;;;;7404256;19;19919;-64
2022/12/21 07:39:39;;;;;;;39.97;10.93;;;6.20;99.90;;;;;;7405341;19;20321;-64
2022/12/21 07:42:15;;;;;;;62.47;11.50;;;5.70;99.90;;;;;;7405946;19;19982;-64
2022/12/21 07:44:47;;;;;;;82.93;12.65;;;5.70;99.90;;;;;;7406027;19;19958;-64
2022/12/21 07:47:16;;;;;;;55.67;11.63;;;5.70;99.90;;;;;;7406307;19;19911;-64
2022/12/21 07:49:45;;;;;;;48.85;10.90;;;5.80;99.90;;;;;;7406799;19;19926;-65
2022/12/21 07:52:15;;;;;;;64.53;12.35;;;5.80;99.90;;;;;;7406401;19;19922;-64
2022/12/21 07:54:44;;;;;;;76.78;12.25;;;5.80;99.90;;;;;;7375568;19;19952;-64
2022/12/21 07:57:13;;;;;;;54.83;11.27;;;5.70;99.90;;;;;;7405278;19;20340;-64
2022/12/21 07:59:42;;;;;;;42.20;11.25;;;6.60;99.90;;;;;;7393791;19;19982;-64
2022/12/21 08:02:15;;;;;;;39.28;11.75;;;5.90;99.90;;;;;;7366389;19;19922;-64
2022/12/21 08:04:44;;;;;;;64.40;11.82;;;5.80;99.90;;;;;;7402804;19;20352;-64
2022/12/21 08:07:13;;;;;;;48.45;11.82;;;5.70;99.90;;;;;;7406520;19;19978;-64
2022/12/21 08:09:42;;;;;;;68.72;13.82;;;5.80;99.90;;;;;;7409670;19;20002;-64
2022/12/21 08:12:11;;;;;;;61.30;12.10;;;5.80;99.90;;;;;;7405667;19;19985;-64
2022/12/21 08:14:45;;;;;;;54.67;12.73;;;5.80;99.90;;;;;;7404766;19;19922;-64
2022/12/21 08:17:19;;;;;;;43.03;13.20;;;5.90;99.90;;;;;;7405340;19;20352;-64
2022/12/21 08:19:49;;;;;;;38.80;10.73;;;5.80;99.90;;;;;;7406872;19;19927;-64
2022/12/21 08:22:18;;;;;;;33.97;10.18;;;5.90;99.90;;;;;;7400626;19;20252;-64
2022/12/21 08:24:47;;;;;;;46.08;11.40;;;5.80;99.90;;;;;;7408517;19;19915;-64
2022/12/21 08:27:16;;;;;;;50.33;13.13;;;6.00;99.90;;;;;;7404268;19;19926;-64
2022/12/21 08:29:46;;;;;;;38.00;11.35;;;5.90;99.90;;;;;;7404538;19;20417;-65
2022/12/21 08:32:15;;;;;;;50.70;12.80;;;5.80;99.90;;;;;;7405648;19;20268;-64
2022/12/21 08:34:47;;;;;;;43.25;11.98;;;5.90;99.90;;;;;;7404942;19;19918;-64
2022/12/21 08:37:16;;;;;;;47.95;11.95;;;6.00;99.90;;;;;;7404598;19;19917;-64
2022/12/21 08:39:45;;;;;;;41.80;11.13;;;5.90;99.90;;;;;;7404650;19;19933;-64
2022/12/21 08:42:14;;;;;;;41.20;11.38;;;6.00;99.90;;;;;;7404525;19;19915;-64
2022/12/21 08:44:43;;;;;;;38.55;11.40;;;6.00;99.90;;;;;;7403697;19;19918;-64
2022/12/21 08:47:12;;;;;;;36.13;11.30;;;6.00;99.90;;;;;;7402463;19;19943;-64
2022/12/21 08:49:41;;;;;;;35.75;10.40;;;5.90;99.90;;;;;;7405684;19;20343;-65
2022/12/21 08:52:14;;;;;;;35.63;10.68;;;6.10;99.90;;;;;;7403740;19;19934;-64
2022/12/21 08:54:43;;;;;;;46.05;12.27;;;6.00;99.90;;;;;;7405578;19;19922;-64
2022/12/21 08:57:12;;;;;;;46.70;14.82;;;6.10;99.90;;;;;;7403528;19;19914;-65
2022/12/21 08:59:41;;;;;;;36.03;11.32;;;6.00;99.90;;;;;;7407831;19;19918;-64
2022/12/21 09:02:12;;;;;;;45.22;12.35;;;5.60;99.90;;;;;;7403486;19;20298;-64
2022/12/21 09:04:42;;;;;;;43.13;13.05;;;6.10;99.90;;;;;;7406039;19;19919;-64
2022/12/21 09:07:14;;;;;;;39.92;10.98;;;5.80;99.90;;;;;;7404864;19;20321;-64
2022/12/21 09:09:43;;;;;;;;;;;6.00;99.90;;;;;;7404522;19;19922;-63
2022/12/21 09:12:12;;;;;;;39.17;11.85;;;5.90;99.90;;;;;;7402595;19;19946;-65
2022/12/21 09:14:51;;;;;;;45.20;11.63;;;6.00;99.90;;;;;;7401959;19;19922;-63
2022/12/21 09:17:20;;;;;;;38.45;11.45;;;6.00;99.90;;;;;;7399474;19;19923;-63
2022/12/21 09:19:49;;;;;;;33.20;9.05;;;5.90;99.90;;;;;;7405104;19;19929;-63
2022/12/21 09:22:20;;;;;;;32.55;11.07;;;5.90;99.90;;;;;;7404588;19;19917;-63
2022/12/21 09:24:51;;;;;;;28.27;8.88;;;5.90;99.90;;;;;;7403148;19;20604;-63
2022/12/21 09:27:24;;;;;;;29.75;9.43;;;6.00;99.90;;;;;;7406206;19;19919;-63
2022/12/21 09:29:53;;;;;;;34.47;9.27;;;5.80;99.90;;;;;;7403461;19;19935;-64
2022/12/21 09:32:22;;;;;;;33.47;9.25;;;6.10;99.90;;;;;;7405103;19;20380;-63
2022/12/21 09:34:51;;;;;;;34.17;10.00;;;6.10;99.90;;;;;;7404676;19;19939;-64
2022/12/21 09:37:22;;;;;;;36.88;11.02;;;5.90;99.90;;;;;;7403310;19;19923;-63
2022/12/21 09:39:51;;;;;;;35.58;11.88;;;6.50;99.90;;;;;;7401690;19;20248;-64
2022/12/21 09:42:31;;;;;;;41.40;12.90;;;6.10;99.90;;;;;;7402545;19;19953;-64
2022/12/21 09:45:09;;;;;;;43.47;12.35;;;6.20;99.90;;;;;;7406423;19;19921;-64
2022/12/21 09:47:48;;;;;;;34.42;10.93;;;6.20;99.90;;;;;;7402943;19;19935;-63
2022/12/21 09:50:23;;;;;;;33.47;10.27;;;6.30;99.90;;;;;;7402567;19;19939;-63
2022/12/21 09:53:02;;;;;;;41.22;12.60;;;6.20;99.90;;;;;;7399729;19;19922;-64
2022/12/21 09:55:35;;;;;;;34.00;11.13;;;6.20;99.90;;;;;;7400465;19;20305;-63
2022/12/21 09:58:11;;;;;;;36.72;11.38;;;6.20;99.90;;;;;;7405480;19;19926;-63
2022/12/21 10:00:41;;;;;;;28.92;8.90;;;6.20;99.90;;;;;;7402523;19;20348;-63
2022/12/21 10:03:36;;;;;;;35.45;10.05;;;6.40;99.90;;;;;;7401188;19;20337;-63
2022/12/21 10:06:26;;;;;;;31.15;9.65;;;6.30;99.90;;;;;;7400568;19;20387;-64
2022/12/21 10:09:18;;;;;;;34.38;10.40;;;6.10;99.90;;;;;;7404236;19;19932;-63
2022/12/21 10:12:00;;;;;;;38.20;11.30;;;6.30;99.90;;;;;;7402076;19;19988;-63
2022/12/21 10:14:43;;;;;;;39.30;11.63;;;6.40;99.90;;;;;;7401720;19;20313;-63
2022/12/21 10:17:24;;;;;;;40.20;10.57;;;6.50;99.90;;;;;;7401725;19;19915;-63
2022/12/21 10:20:09;;;;;;;40.65;10.55;;;6.40;99.90;;;;;;7401542;19;19926;-63
2022/12/21 10:22:42;;;;;;;30.23;10.30;;;6.30;99.90;;;;;;7401744;19;19936;-63
2022/12/21 10:25:23;;;;;;;38.30;11.63;;;6.30;99.90;;;;;;7401680;19;19990;-64
2022/12/21 10:27:55;;;;;;;34.97;11.10;;;6.40;99.90;;;;;;7403824;19;19923;-63
2022/12/21 10:30:25;;;;;;;28.48;11.30;;;6.50;99.90;;;;;;7406129;19;19922;-63
2022/12/21 10:33:00;;;;;;;28.35;11.57;;;6.40;99.90;;;;;;7407859;19;20355;-63
2022/12/21 10:35:38;;;;;;;35.03;11.23;;;6.60;99.90;;;;;;7406078;19;19923;-64
2022/12/21 10:38:17;;;;;;;36.38;11.85;;;6.50;99.90;;;;;;7406079;19;19911;-63
2022/12/21 10:40:54;;;;;;;32.15;12.40;;;6.40;99.90;;;;;;7408359;19;19922;-63
2022/12/21 10:43:24;;;;;;;33.45;11.18;;;6.50;99.90;;;;;;7407698;19;20023;-64
2022/12/21 10:45:53;;;;;;;36.03;13.57;;;6.40;99.90;;;;;;7408059;19;19921;-64
2022/12/21 10:48:22;;;;;;;34.15;12.02;;;6.60;99.90;;;;;;7407420;19;20395;-64
2022/12/21 10:50:54;;;;;;;41.90;12.43;;;6.80;99.90;;;;;;7407810;19;19922;-64
2022/12/21 10:53:27;;;;;;;32.25;13.00;;;6.60;99.90;;;;;;7405641;19;20337;-64
2022/12/21 10:56:01;;;;;;;36.60;12.77;;;6.60;99.90;;;;;;7407711;19;19922;-64
2022/12/21 10:58:32;;;;;;;36.42;12.50;;;6.60;99.90;;;;;;7409825;19;20360;-64
2022/12/21 11:01:05;;;;;;;33.90;11.60;;;6.60;99.90;;;;;;7412131;19;19915;-64
2022/12/21 11:03:36;;;;;;;35.05;12.43;;;6.80;99.90;;;;;;7408818;19;20162;-64
2022/12/21 11:06:15;;;;;;;38.75;13.02;;;6.70;99.90;;;;;;7409239;19;20329;-62
2022/12/21 11:08:48;;;;;;;30.92;12.82;;;6.80;99.90;;;;;;7398286;19;20562;-63
2022/12/21 11:11:32;;;;;;;38.85;13.30;;;6.80;99.90;;;;;;7398872;19;20325;-63
2022/12/21 11:14:03;;;;;;;34.58;12.48;;;8.70;99.90;;;;;;7406464;19;19919;-62
2022/12/21 11:16:36;;;;;;;37.53;12.45;;;6.80;99.90;;;;;;7409706;19;19999;-63
2022/12/21 11:19:06;;;;;;;27.63;10.95;;;6.70;99.90;;;;;;7406160;19;20340;-61
2022/12/21 11:21:40;;;;;;;33.88;11.07;;;6.80;99.90;;;;;;7408669;19;20278;-62
2022/12/21 11:24:15;;;;;;;28.17;11.23;;;6.70;99.90;;;;;;7404805;19;19919;-62
2022/12/21 11:26:48;;;;;;;38.10;12.18;;;6.70;99.90;;;;;;7409082;19;19939;-63
2022/12/21 11:29:27;;;;;;;39.53;12.57;;;6.80;99.90;;;;;;7408234;19;20256;-62
2022/12/21 11:32:07;;;;;;;31.58;12.45;;;6.70;99.90;;;;;;7410450;19;19952;-62
2022/12/21 11:34:42;;;;;;;27.88;10.40;;;6.90;99.90;;;;;;7407465;19;19949;-63
2022/12/21 11:37:25;;;;;;;27.45;9.13;;;6.90;99.90;;;;;;7408339;19;20312;-63
2022/12/21 11:39:57;;;;;;;32.80;11.50;;;7.10;99.90;;;;;;7312336;19;19926;-63
2022/12/21 11:42:29;;;;;;;32.17;10.93;;;7.00;99.90;;;;;;7408550;19;19956;-64
2022/12/21 11:45:18;;;;;;;;;;;7.00;99.90;;;;;;7412131;19;20328;-63
2022/12/21 11:48:04;;;;;;;30.25;11.10;;;6.50;99.90;;;;;;7402320;19;20260;-63
2022/12/21 11:51:02;;;;;;;32.17;9.57;;;6.70;99.90;;;;;;7408292;19;19923;-62
2022/12/21 11:53:58;;;;;;;28.10;9.98;;;6.80;99.90;;;;;;7405511;19;19930;-62
2022/12/21 11:56:36;;;;;;;29.02;10.55;;;6.90;99.90;;;;;;7407565;19;19914;-62
2022/12/21 11:59:27;;;;;;;28.80;10.93;;;7.00;99.90;;;;;;7397016;19;20408;-62
2022/12/21 12:02:09;;;;;;;26.92;10.52;;;7.00;99.90;;;;;;7406281;19;19926;-62
2022/12/21 12:04:56;;;;;;;30.98;11.13;;;7.00;99.90;;;;;;7395526;19;20310;-62
2022/12/21 12:07:41;;;;;;;34.47;11.15;;;7.00;99.90;;;;;;7408557;19;19926;-61
2022/12/21 12:10:42;;;;;;;24.90;9.40;;;7.10;99.90;;;;;;7407829;19;19929;-67
2022/12/21 12:13:20;;;;;;;22.48;10.48;;;7.30;99.90;;;;;;7405749;19;19950;-62
2022/12/21 12:16:00;;;;;;;27.95;9.50;;;7.30;99.90;;;;;;7403924;19;19978;-62
2022/12/21 12:18:41;;;;;;;25.98;9.45;;;7.40;99.90;;;;;;7404755;19;19915;-63
2022/12/21 12:21:32;;;;;;;28.48;9.75;;;7.50;99.90;;;;;;7399483;19;19927;-63
2022/12/21 12:24:21;;;;;;;24.58;10.25;;;9.10;99.90;;;;;;7406183;19;19990;-62
2022/12/21 12:26:59;;;;;;;27.60;10.88;;;7.60;99.90;;;;;;7405331;19;19928;-62
2022/12/21 12:30:04;;;;;;;28.08;10.13;;;7.60;99.90;;;;;;7409283;19;19927;-61
2022/12/21 12:33:13;;;;;;;31.08;10.48;;;7.60;99.90;;;;;;7404440;19;19922;-62
2022/12/21 12:36:02;;;;;;;28.08;11.07;;;7.60;99.90;;;;;;7407180;19;20030;-62
2022/12/21 12:38:44;;;;;;;31.65;11.60;;;7.70;99.90;;;;;;7397546;19;19922;-62
2022/12/21 12:41:30;;;;;;;28.23;11.52;;;7.70;99.90;;;;;;7406255;19;19928;-62
2022/12/21 12:44:03;;;;;;;29.88;10.70;;;7.90;99.90;;;;;;7404231;19;19938;-62
2022/12/21 12:46:51;;;;;;;30.67;11.45;;;7.70;99.90;;;;;;7407388;19;19915;-62
2022/12/21 12:49:33;;;;;;;30.42;11.00;;;7.70;99.90;;;;;;7403636;19;20308;-62
2022/12/21 12:52:08;;;;;;;27.45;10.35;;;7.80;99.90;;;;;;7402013;19;19914;-62
2022/12/21 12:54:48;;;;;;;29.00;10.60;;;7.70;99.90;;;;;;7395602;19;20344;-62
2022/12/21 12:57:27;;;;;;;28.45;10.20;;;7.70;99.90;;;;;;7407244;19;19918;-62
2022/12/21 13:00:03;;;;;;;32.33;10.82;;;7.70;99.90;;;;;;7404266;19;19925;-62
2022/12/21 13:02:44;;;;;;;31.52;10.85;;;7.70;99.90;;;;;;7406830;19;20289;-64
2022/12/21 13:05:29;;;;;;;32.60;11.90;;;7.60;99.90;;;;;;7405501;19;20361;-62
2022/12/21 13:08:07;;;;;;;31.30;10.90;;;7.70;99.90;;;;;;7403638;19;19914;-63
2022/12/21 13:10:45;;;;;;;36.90;13.07;;;7.60;99.90;;;;;;7403931;19;20343;-63
2022/12/21 13:13:18;;;;;;;;;;;7.50;99.90;;;;;;7389128;19;20030;-63
2022/12/21 13:15:54;;;;;;;25.70;10.52;;;7.50;99.90;;;;;;7395634;19;19983;-63
2022/12/21 13:18:27;;;;;;;33.50;11.32;;;7.50;99.90;;;;;;7403344;19;19919;-63
2022/12/21 13:21:01;;;;;;;29.00;10.32;;;7.50;99.90;;;;;;7403385;19;19945;-62
2022/12/21 13:23:39;;;;;;;32.47;12.18;;;7.50;99.90;;;;;;7404164;19;19918;-63
2022/12/21 13:26:13;;;;;;;27.70;11.43;;;7.40;99.90;;;;;;7403038;19;19925;-63
2022/12/21 13:28:53;;;;;;;32.65;11.73;;;7.50;99.90;;;;;;7389526;19;19950;-63
2022/12/21 13:31:29;;;;;;;32.08;10.85;;;7.50;99.90;;;;;;7395593;19;20359;-63